Milwaukee, Wisconsin
Traffic Map
Current Weather Conditions
Milwaukee, Wisconsin
Overcast Light Snow
Overcast

Feels Like: -5°
Wind Chill: -5° Ceiling: 1000
Heat Index: Visibility: 3mi
Dew Point: -1° Wind: 13mph
Humidity: 89% Direction: 310° (NW)
Pressure: 30.08in Gusts: 0mph
Raw Report DataKMKE 311052Z 31011KT 3SM -RASN FEW006 BKN010 OVC019 01/M01 A3008 RMK AO2 PK WND 29028/1002 RAB39E46B50SNB39 SLP191 P0002 T00061011
Traffic Incident Summary
Active as of:
Severity:
Category:
InformationThere was an issue retrieving the traffic information for this location. Please try a different location or try again shortly.
Advertisements
Track Severe Weather on mobile